Time;durP1;ratioP1;P1;durP2;ratioP2;P2;SDS_P1;SDS_P2;PMS_P1;PMS_P2;Temp;Humidity;BMP_temperature;BMP_pressure;BME280_temperature;BME280_humidity;BME280_pressure;Samples;Min_cycle;Max_cycle;Signal;HPM_P1;HPM_P2
2022/11/09 00:00:38;;;;;;;8.07;5.03;;;7.20;99.90;;;;;;5062622;28;20223;-50
2022/11/09 00:03:05;;;;;;;5.13;4.63;;;7.10;99.90;;;;;;5062909;28;20774;-51
2022/11/09 00:05:33;;;;;;;5.33;4.83;;;7.10;99.90;;;;;;5070490;28;20218;-51
2022/11/09 00:08:00;;;;;;;5.03;4.23;;;7.10;99.90;;;;;;5070710;28;20211;-51
2022/11/09 00:10:27;;;;;;;4.67;4.27;;;7.10;99.90;;;;;;5064325;28;20203;-51
2022/11/09 00:12:54;;;;;;;6.40;3.93;;;7.20;99.90;;;;;;5064043;28;20244;-51
2022/11/09 00:15:21;;;;;;;4.57;3.77;;;7.10;99.90;;;;;;5070274;28;20229;-51
2022/11/09 00:17:48;;;;;;;7.57;4.83;;;7.20;99.90;;;;;;5074494;28;20203;-50
2022/11/09 00:20:16;;;;;;;4.20;3.53;;;7.30;99.90;;;;;;5069688;28;20659;-51
2022/11/09 00:22:47;;;;;;;3.40;3.20;;;7.40;99.90;;;;;;5064559;28;20205;-50
2022/11/09 00:25:14;;;;;;;4.07;3.67;;;7.50;99.90;;;;;;5073885;28;20226;-50
2022/11/09 00:27:42;;;;;;;4.27;2.67;;;7.50;99.90;;;;;;5067759;28;20199;-51
2022/11/09 00:30:10;;;;;;;4.33;3.33;;;7.40;99.90;;;;;;5069996;28;20217;-51
2022/11/09 00:32:37;;;;;;;3.37;2.80;;;7.40;99.90;;;;;;5067395;28;20641;-52
2022/11/09 00:35:05;;;;;;;2.70;2.50;;;7.40;99.90;;;;;;5073898;28;20664;-51
2022/11/09 00:37:32;;;;;;;2.93;2.23;;;7.50;99.90;;;;;;5074219;28;20203;-51
2022/11/09 00:40:01;;;;;;;2.77;2.57;;;7.50;99.90;;;;;;5068401;28;20696;-51
2022/11/09 00:42:28;;;;;;;5.27;2.67;;;7.40;99.90;;;;;;5069089;28;20213;-51
2022/11/09 00:44:55;;;;;;;3.10;2.87;;;7.40;99.90;;;;;;5073384;28;20222;-51
2022/11/09 00:47:22;;;;;;;5.17;3.87;;;7.30;99.90;;;;;;5073628;28;20218;-52
2022/11/09 00:49:49;;;;;;;3.73;3.43;;;7.20;99.90;;;;;;5073855;28;20202;-50
2022/11/09 00:52:16;;;;;;;4.43;4.00;;;7.10;99.90;;;;;;5063084;28;20206;-52
2022/11/09 00:54:43;;;;;;;5.17;4.67;;;7.10;99.90;;;;;;5064388;28;20200;-51
2022/11/09 00:57:12;;;;;;;5.27;4.17;;;7.10;99.90;;;;;;5073400;28;20314;-51
2022/11/09 00:59:39;;;;;;;10.00;4.40;;;7.00;99.90;;;;;;5073951;28;20389;-51
2022/11/09 01:02:06;;;;;;;7.17;4.67;;;7.00;99.90;;;;;;5065877;28;20208;-51
2022/11/09 01:04:33;;;;;;;4.77;4.37;;;6.90;99.90;;;;;;5068029;28;20226;-51
2022/11/09 01:07:00;;;;;;;5.70;4.63;;;6.90;99.90;;;;;;5064745;28;20216;-52
2022/11/09 01:09:27;;;;;;;5.10;4.60;;;6.80;99.90;;;;;;5073350;28;20197;-51
2022/11/09 01:11:55;;;;;;;6.33;4.87;;;6.80;99.90;;;;;;5067143;28;20651;-51
2022/11/09 01:14:23;;;;;;;5.20;4.70;;;6.70;99.90;;;;;;5073309;28;20673;-50
2022/11/09 01:16:50;;;;;;;9.80;5.10;;;6.70;99.90;;;;;;5074307;28;20230;-50
2022/11/09 01:19:19;;;;;;;5.17;4.73;;;6.70;99.90;;;;;;5068853;28;20206;-49
2022/11/09 01:21:46;;;;;;;6.70;4.43;;;6.70;99.90;;;;;;5071915;28;20202;-51
2022/11/09 01:24:14;;;;;;;4.53;4.10;;;6.80;99.90;;;;;;5072104;28;20318;-51
2022/11/09 01:26:41;;;;;;;7.20;5.00;;;6.80;99.90;;;;;;5073168;28;20280;-51
2022/11/09 01:29:08;;;;;;;4.37;4.00;;;6.60;99.90;;;;;;5072970;28;20205;-51
2022/11/09 01:31:36;;;;;;;4.63;4.30;;;6.70;99.90;;;;;;5061938;28;20266;-51
2022/11/09 01:34:03;;;;;;;3.77;3.50;;;6.80;99.90;;;;;;5072541;28;20203;-51
2022/11/09 01:36:30;;;;;;;3.80;3.50;;;6.90;99.90;;;;;;5072814;28;20230;-51
2022/11/09 01:38:57;;;;;;;3.80;3.37;;;7.00;99.90;;;;;;5073097;28;20213;-51
2022/11/09 01:41:26;;;;;;;3.33;3.00;;;7.10;99.90;;;;;;5068063;28;20207;-51
2022/11/09 01:44:11;;;;;;;4.53;3.33;;;7.20;99.90;;;;;;5066917;28;20279;-50
2022/11/09 01:46:45;;;;;;;7.33;3.40;;;7.20;99.90;;;;;;5072609;28;20235;-50
2022/11/09 01:49:19;;;;;;;5.90;2.63;;;7.20;99.90;;;;;;5072844;28;20202;-51
2022/11/09 01:51:50;;;;;;;3.10;2.83;;;7.10;99.90;;;;;;5067960;28;20205;-51
2022/11/09 01:54:24;;;;;;;4.10;2.47;;;7.10;99.90;;;;;;5072619;28;20202;-50
2022/11/09 01:56:56;;;;;;;4.80;2.63;;;7.10;99.90;;;;;;5062285;28;20223;-51
2022/11/09 01:59:27;;;;;;;2.67;2.47;;;7.10;99.90;;;;;;5072301;28;20674;-52
2022/11/09 02:01:56;;;;;;;3.87;2.37;;;7.10;99.90;;;;;;5068198;28;20203;-50
2022/11/09 02:04:27;;;;;;;2.17;1.97;;;7.10;99.90;;;;;;5072244;28;20757;-50
2022/11/09 02:06:57;;;;;;;1.83;1.73;;;7.10;99.90;;;;;;5072372;28;20228;-51
2022/11/09 02:09:31;;;;;;;1.27;0.83;;;7.10;99.90;;;;;;5065766;28;20208;-50
2022/11/09 02:11:58;;;;;;;1.13;0.93;;;7.20;99.90;;;;;;5067498;28;20294;-51
2022/11/09 02:14:28;;;;;;;1.20;1.20;;;7.30;99.90;;;;;;5071862;28;20282;-51
2022/11/09 02:16:57;;;;;;;0.80;0.80;;;7.30;99.90;;;;;;5072234;28;20229;-55
2022/11/09 02:19:24;;;;;;;1.83;1.00;;;7.40;99.90;;;;;;5070752;28;20213;-52
2022/11/09 02:21:52;;;;;;;1.30;0.83;;;7.50;99.90;;;;;;5062561;28;20212;-51
2022/11/09 02:24:21;;;;;;;1.47;0.97;;;7.70;99.90;;;;;;5071783;28;20226;-50
2022/11/09 02:26:50;;;;;;;1.80;0.60;;;7.80;99.90;;;;;;5071939;28;20222;-50
2022/11/09 02:29:23;;;;;;;2.57;0.57;;;7.80;99.90;;;;;;5071950;28;20213;-51
2022/11/09 02:31:57;;;;;;;0.37;0.37;;;7.80;99.90;;;;;;5065650;28;20206;-52
2022/11/09 02:34:24;;;;;;;0.60;0.50;;;7.90;99.90;;;;;;5066100;28;20198;-51
2022/11/09 02:36:53;;;;;;;0.90;0.90;;;8.10;99.90;;;;;;5071863;28;20227;-51
2022/11/09 02:39:23;;;;;;;1.43;1.20;;;8.20;99.90;;;;;;5068462;28;20207;-51
2022/11/09 02:41:53;;;;;;;1.00;0.90;;;8.20;99.90;;;;;;5066126;28;20210;-52
2022/11/09 02:44:24;;;;;;;1.00;1.00;;;8.10;99.90;;;;;;5067089;28;20220;-50
2022/11/09 02:46:51;;;;;;;0.60;0.60;;;8.00;99.90;;;;;;5061724;28;20235;-51
2022/11/09 02:49:21;;;;;;;3.77;1.00;;;8.00;99.90;;;;;;5064602;28;20624;-51
2022/11/09 02:51:48;;;;;;;2.93;1.10;;;8.00;99.90;;;;;;5060450;28;20210;-49
2022/11/09 02:54:20;;;;;;;2.33;1.40;;;8.00;99.90;;;;;;5071051;28;20676;-52
2022/11/09 02:56:47;;;;;;;1.30;1.20;;;8.00;99.90;;;;;;5068174;28;20225;-51
2022/11/09 02:59:14;;;;;;;1.47;1.37;;;8.00;99.90;;;;;;5057031;28;20213;-51
2022/11/09 03:01:41;;;;;;;1.93;1.83;;;7.90;99.90;;;;;;5068435;28;20264;-52
2022/11/09 03:04:08;;;;;;;2.97;2.10;;;7.80;99.90;;;;;;5071253;28;20223;-51
2022/11/09 03:06:35;;;;;;;2.60;1.20;;;7.80;99.90;;;;;;5063024;28;20222;-51
2022/11/09 03:09:03;;;;;;;1.80;1.10;;;7.80;99.90;;;;;;5058054;28;20211;-51
2022/11/09 03:11:32;;;;;;;1.60;0.90;;;7.70;99.90;;;;;;5057698;28;20561;-51
2022/11/09 03:13:59;;;;;;;1.23;0.80;;;7.70;99.90;;;;;;5071007;28;20199;-52
2022/11/09 03:16:26;;;;;;;0.90;0.90;;;7.60;99.90;;;;;;5071247;28;20230;-51
2022/11/09 03:18:53;;;;;;;1.70;0.83;;;7.50;99.90;;;;;;5068473;28;20651;-52
2022/11/09 03:21:20;;;;;;;0.63;0.63;;;7.50;99.90;;;;;;5065437;28;20199;-51
2022/11/09 03:23:48;;;;;;;1.33;0.83;;;7.50;99.90;;;;;;5064801;28;20202;-52
2022/11/09 03:26:15;;;;;;;2.80;0.77;;;7.50;99.90;;;;;;5071124;28;20322;-50
2022/11/09 03:28:44;;;;;;;0.47;0.47;;;7.40;99.90;;;;;;5070086;28;20217;-49
2022/11/09 03:31:11;;;;;;;1.13;0.73;;;7.50;99.90;;;;;;5062309;28;20614;-50
2022/11/09 03:33:38;;;;;;;2.30;2.20;;;7.60;99.90;;;;;;5070887;28;20610;-51
2022/11/09 03:36:05;;;;;;;3.13;2.53;;;7.90;99.90;;;;;;5060287;28;20230;-51
2022/11/09 03:38:33;;;;;;;5.20;2.87;;;8.00;99.90;;;;;;5071095;28;20203;-50
2022/11/09 03:41:00;;;;;;;2.90;2.57;;;8.00;99.90;;;;;;5062470;28;20203;-51
2022/11/09 03:43:28;;;;;;;2.60;2.50;;;7.90;99.90;;;;;;5064911;28;20298;-51
2022/11/09 03:45:56;;;;;;;3.57;3.20;;;7.80;99.90;;;;;;5094200;22;20631;-49
2022/11/09 03:48:24;;;;;;;4.07;3.00;;;7.70;99.90;;;;;;5078540;28;20691;-49
2022/11/09 03:50:51;;;;;;;3.40;3.13;;;7.70;99.90;;;;;;5077896;28;20199;-49
2022/11/09 03:53:18;;;;;;;3.50;3.20;;;7.70;99.90;;;;;;5081160;28;20195;-49
2022/11/09 03:55:45;;;;;;;3.73;3.43;;;7.80;99.90;;;;;;5075459;28;20287;-49
2022/11/09 03:58:12;;;;;;;3.30;3.00;;;7.80;99.90;;;;;;5075279;28;20197;-50
2022/11/09 04:00:40;;;;;;;4.30;3.03;;;7.70;99.90;;;;;;5058896;28;20733;-49
2022/11/09 04:03:08;;;;;;;4.23;3.93;;;7.70;99.90;;;;;;5065427;28;20203;-49
2022/11/09 04:05:35;;;;;;;5.00;4.07;;;7.60;99.90;;;;;;5075142;28;20303;-50
2022/11/09 04:08:02;;;;;;;3.77;3.47;;;7.60;99.90;;;;;;5075308;28;20206;-50
2022/11/09 04:10:29;;;;;;;5.20;3.47;;;7.60;99.90;;;;;;5067311;28;20678;-49
2022/11/09 04:12:57;;;;;;;5.40;3.73;;;7.60;99.90;;;;;;5070620;28;20210;-49
2022/11/09 04:15:24;;;;;;;7.60;4.20;;;7.60;99.90;;;;;;5069620;28;20311;-49
2022/11/09 04:17:55;;;;;;;4.37;3.97;;;7.70;99.90;;;;;;5075194;28;20211;-50
2022/11/09 04:20:24;;;;;;;4.10;3.43;;;7.70;99.90;;;;;;5067464;28;20206;-49
2022/11/09 04:22:55;;;;;;;4.10;3.80;;;7.60;99.90;;;;;;5074708;28;20199;-50
2022/11/09 04:25:22;;;;;;;5.27;3.50;;;7.60;99.90;;;;;;5056263;28;20230;-49
2022/11/09 04:27:54;;;;;;;3.80;3.60;;;7.50;99.90;;;;;;5074678;28;20200;-50
2022/11/09 04:30:21;;;;;;;3.77;3.40;;;7.50;99.90;;;;;;5067865;28;20210;-49
2022/11/09 04:32:48;;;;;;;4.37;3.60;;;7.60;99.90;;;;;;5074641;28;20203;-49
2022/11/09 04:35:15;;;;;;;4.07;3.67;;;7.60;99.90;;;;;;5065081;28;20199;-50
2022/11/09 04:37:43;;;;;;;4.90;3.80;;;7.60;99.90;;;;;;5067416;28;20226;-49
2022/11/09 04:40:11;;;;;;;3.63;3.07;;;7.60;99.90;;;;;;5074473;28;20680;-49
2022/11/09 04:42:39;;;;;;;3.83;3.63;;;7.60;99.90;;;;;;5074653;28;20207;-50
2022/11/09 04:45:07;;;;;;;4.50;4.07;;;7.50;99.90;;;;;;5069375;28;20230;-51
2022/11/09 04:47:34;;;;;;;3.73;3.37;;;7.50;99.90;;;;;;5067915;28;20234;-49
2022/11/09 04:50:01;;;;;;;4.37;3.93;;;7.60;99.90;;;;;;5061240;28;20198;-49
2022/11/09 04:52:28;;;;;;;4.17;3.83;;;7.60;99.90;;;;;;5070489;28;20207;-49
2022/11/09 04:54:56;;;;;;;4.77;3.87;;;7.70;99.90;;;;;;5069313;28;20211;-50
2022/11/09 04:57:23;;;;;;;5.70;4.23;;;7.80;99.90;;;;;;5073992;28;20222;-49
2022/11/09 04:59:50;;;;;;;5.33;4.83;;;7.80;99.90;;;;;;5070089;28;20212;-51
2022/11/09 05:02:17;;;;;;;5.57;5.07;;;7.90;99.90;;;;;;5074259;28;20201;-50
2022/11/09 05:04:44;;;;;;;6.67;5.43;;;8.00;99.90;;;;;;5069275;28;20230;-50
2022/11/09 05:07:11;;;;;;;11.63;6.10;;;8.20;99.90;;;;;;5074199;28;20222;-49
2022/11/09 05:09:38;;;;;;;5.27;4.87;;;8.30;99.90;;;;;;5074259;28;20213;-49
2022/11/09 05:12:08;;;;;;;7.13;5.93;;;8.30;99.90;;;;;;5064739;28;20201;-49
2022/11/09 05:14:36;;;;;;;6.47;5.87;;;8.30;99.90;;;;;;5069482;28;20211;-50
2022/11/09 05:17:03;;;;;;;6.73;4.97;;;8.30;99.90;;;;;;5054253;28;20215;-50
2022/11/09 05:19:30;;;;;;;6.00;4.23;;;8.40;99.90;;;;;;5061328;28;20838;-49
2022/11/09 05:23:57;;;;;;;4.43;3.47;;;8.40;99.90;;;;;;5074003;28;20207;-50
2022/11/09 05:24:44;;;;;;;4.10;3.80;;;8.40;99.90;;;;;;5054436;28;20227;-49
2022/11/09 05:27:12;;;;;;;6.20;5.07;;;8.40;99.90;;;;;;5073528;28;20218;-49
2022/11/09 05:29:39;;;;;;;4.20;3.80;;;8.40;99.90;;;;;;5073546;28;20207;-50
2022/11/09 05:32:06;;;;;;;4.97;4.47;;;8.30;99.90;;;;;;5073836;28;20209;-48
2022/11/09 05:34:33;;;;;;;3.57;3.13;;;8.30;99.90;;;;;;5069852;28;20214;-51
2022/11/09 05:37:00;;;;;;;3.90;2.23;;;8.30;99.90;;;;;;5065222;28;20214;-49
2022/11/09 05:39:27;;;;;;;4.63;2.30;;;8.30;99.90;;;;;;5063483;28;20195;-49
2022/11/09 05:41:54;;;;;;;1.77;1.63;;;8.30;99.90;;;;;;5072349;28;20354;-51
2022/11/09 05:44:23;;;;;;;0.97;0.97;;;8.20;99.90;;;;;;5072780;28;20721;-52
2022/11/09 05:46:50;;;;;;;2.77;2.53;;;8.20;99.90;;;;;;5071260;28;20231;-49
2022/11/09 05:49:20;;;;;;;2.97;1.60;;;8.20;99.90;;;;;;5073489;28;20218;-52
2022/11/09 05:51:47;;;;;;;1.83;1.73;;;8.20;99.90;;;;;;5071171;28;20256;-48
2022/11/09 05:54:18;;;;;;;3.47;2.67;;;8.10;99.90;;;;;;5061903;28;20211;-50
2022/11/09 05:56:45;;;;;;;2.47;2.03;;;8.10;99.90;;;;;;5059753;28;20279;-52
2022/11/09 05:59:12;;;;;;;4.27;3.67;;;8.10;99.90;;;;;;5054975;28;20207;-51
2022/11/09 06:01:41;;;;;;;3.80;3.50;;;8.10;99.90;;;;;;5064667;28;20701;-50
2022/11/09 06:04:08;;;;;;;6.07;4.87;;;8.10;99.90;;;;;;5055047;28;20209;-51
2022/11/09 06:06:35;;;;;;;8.77;4.30;;;8.20;99.90;;;;;;5057216;28;20295;-49
2022/11/09 06:09:02;;;;;;;9.23;5.47;;;8.30;99.90;;;;;;5053814;28;20197;-49
2022/11/09 06:11:29;;;;;;;5.70;4.27;;;8.20;99.90;;;;;;5062784;28;20196;-50
2022/11/09 06:13:56;;;;;;;7.20;6.03;;;8.20;99.90;;;;;;5063776;28;20206;-52
2022/11/09 06:16:23;;;;;;;6.27;5.67;;;8.30;99.90;;;;;;5066629;28;20222;-48
2022/11/09 06:18:52;;;;;;;6.27;5.07;;;8.30;99.90;;;;;;5072767;28;20199;-50
2022/11/09 06:21:19;;;;;;;8.17;5.97;;;8.30;99.90;;;;;;5059856;28;20201;-49
2022/11/09 06:23:46;;;;;;;6.80;5.87;;;8.30;99.90;;;;;;5063768;28;20206;-49
2022/11/09 06:26:14;;;;;;;8.10;6.47;;;8.40;99.90;;;;;;5066041;28;20235;-49
2022/11/09 06:28:41;;;;;;;7.90;6.23;;;8.30;99.90;;;;;;5054012;28;20286;-50
2022/11/09 06:31:11;;;;;;;8.50;7.20;;;8.30;99.90;;;;;;5059080;28;20204;-49
2022/11/09 06:33:38;;;;;;;7.10;6.40;;;8.30;99.90;;;;;;5063534;28;20204;-49
2022/11/09 06:36:07;;;;;;;8.73;5.70;;;8.30;99.90;;;;;;5058853;28;20717;-49
2022/11/09 06:38:34;;;;;;;6.53;5.93;;;8.40;99.90;;;;;;5067979;28;20291;-48
2022/11/09 06:41:02;;;;;;;7.83;5.97;;;8.40;99.90;;;;;;5068497;28;20210;-52
2022/11/09 06:43:29;;;;;;;7.97;6.10;;;8.50;99.90;;;;;;5059046;28;20225;-50
2022/11/09 06:45:57;;;;;;;6.17;5.63;;;8.50;99.90;;;;;;5064734;28;20750;-50
2022/11/09 06:48:24;;;;;;;5.20;4.50;;;8.50;99.90;;;;;;5058368;28;20280;-49
2022/11/09 06:50:51;;;;;;;6.57;5.97;;;8.60;99.90;;;;;;5070556;28;20635;-49
2022/11/09 06:53:19;;;;;;;4.67;4.27;;;8.70;99.90;;;;;;5063525;28;20194;-49
2022/11/09 06:55:47;;;;;;;16.80;10.33;;;8.70;99.90;;;;;;5037396;28;20244;-49
2022/11/09 06:58:16;;;;;;;22.30;12.63;;;8.70;99.90;;;;;;5034738;28;20204;-49
2022/11/09 07:00:43;;;;;;;18.50;10.77;;;8.70;99.90;;;;;;5044837;28;20208;-49
2022/11/09 07:03:14;;;;;;;16.17;10.27;;;8.60;99.90;;;;;;5051032;28;20201;-50
2022/11/09 07:05:41;;;;;;;10.83;8.43;;;8.60;99.90;;;;;;5062596;28;20270;-49
2022/11/09 07:08:08;;;;;;;10.03;7.43;;;8.60;99.90;;;;;;5071812;28;20199;-49
2022/11/09 07:10:36;;;;;;;6.93;6.30;;;8.60;99.90;;;;;;5071975;28;20268;-49
2022/11/09 07:13:03;;;;;;;7.27;6.60;;;8.70;99.90;;;;;;5057977;28;20232;-48
2022/11/09 07:15:30;;;;;;;7.00;4.67;;;8.70;99.90;;;;;;5066173;28;20328;-48
2022/11/09 07:17:58;;;;;;;6.20;5.60;;;8.70;99.90;;;;;;5060324;28;20329;-50
2022/11/09 07:20:25;;;;;;;5.80;4.80;;;8.80;99.90;;;;;;5045745;28;20257;-49
2022/11/09 07:22:52;;;;;;;5.73;4.93;;;8.90;99.90;;;;;;5057864;28;20680;-49
2022/11/09 07:25:20;;;;;;;7.17;4.07;;;9.00;99.90;;;;;;5057784;28;20452;-50
2022/11/09 07:27:49;;;;;;;5.73;4.70;;;9.20;99.90;;;;;;5052777;28;20207;-50
2022/11/09 07:30:16;;;;;;;6.20;5.60;;;9.30;99.90;;;;;;5052704;28;20310;-50
2022/11/09 07:32:43;;;;;;;5.20;4.67;;;9.50;99.90;;;;;;5049863;28;20200;-49
2022/11/09 07:35:10;;;;;;;6.40;5.37;;;9.50;99.90;;;;;;5058830;28;20207;-50
2022/11/09 07:37:38;;;;;;;4.93;3.83;;;9.60;99.90;;;;;;5053599;28;20244;-49
2022/11/09 07:40:06;;;;;;;7.87;4.97;;;9.70;99.90;;;;;;5058343;28;20208;-50
2022/11/09 07:42:33;;;;;;;7.27;5.53;;;9.80;99.90;;;;;;5071583;28;20202;-50
2022/11/09 07:45:01;;;;;;;6.20;5.70;;;9.90;99.90;;;;;;5054766;28;20843;-50
2022/11/09 07:47:28;;;;;;;8.60;7.38;;;10.00;99.90;;;;;;5043975;28;20449;-51
2022/11/09 07:49:55;;;;;;;7.60;6.90;;;10.00;99.90;;;;;;5047268;28;20198;-49
2022/11/09 07:52:22;;;;;;;7.53;6.80;;;10.00;99.90;;;;;;5062978;28;20724;-50
2022/11/09 07:54:49;;;;;;;7.57;6.40;;;10.10;99.90;;;;;;5070511;28;20204;-50
2022/11/09 07:57:16;;;;;;;8.13;6.70;;;10.10;99.90;;;;;;5050262;28;20273;-51
2022/11/09 07:59:43;;;;;;;12.47;7.87;;;10.20;99.90;;;;;;5045604;28;20204;-50
2022/11/09 08:02:12;;;;;;;18.67;7.67;;;10.20;99.90;;;;;;5071409;28;20200;-49
2022/11/09 08:04:39;;;;;;;6.67;6.13;;;10.30;99.90;;;;;;5071187;28;20205;-50
2022/11/09 08:07:06;;;;;;;6.73;6.23;;;10.50;99.90;;;;;;5071141;28;20230;-50
2022/11/09 08:09:33;;;;;;;8.83;7.03;;;10.60;99.90;;;;;;5052999;28;20204;-50
2022/11/09 08:12:00;;;;;;;8.07;6.47;;;10.70;99.90;;;;;;5055362;28;20605;-50
2022/11/09 08:14:27;;;;;;;11.73;7.97;;;10.80;99.90;;;;;;5066617;28;20212;-49
2022/11/09 08:16:54;;;;;;;12.90;9.33;;;11.00;99.90;;;;;;5057255;28;20210;-49
2022/11/09 08:19:22;;;;;;;90.50;38.33;;;11.10;99.90;;;;;;5053651;28;20640;-50
2022/11/09 08:21:52;;;;;;;75.63;32.60;;;11.20;99.90;;;;;;5048694;28;20251;-49
2022/11/09 08:24:19;;;;;;;132.67;49.37;;;11.30;99.90;;;;;;5060928;28;20249;-50
2022/11/09 08:26:46;;;;;;;190.20;73.47;;;11.40;99.90;;;;;;5051914;28;20232;-50
2022/11/09 08:29:14;;;;;;;173.13;68.07;;;11.30;99.90;;;;;;5054932;28;20204;-50
2022/11/09 08:31:41;;;;;;;102.13;47.60;;;11.30;99.90;;;;;;5070490;28;20199;-51
2022/11/09 08:34:11;;;;;;;45.17;22.40;;;11.10;99.90;;;;;;5073023;28;20205;-48
2022/11/09 08:36:39;;;;;;;36.67;22.13;;;11.00;99.90;;;;;;5074433;28;20228;-49
2022/11/09 08:39:06;;;;;;;62.47;23.03;;;10.90;99.90;;;;;;5066639;28;20210;-49
2022/11/09 08:41:33;;;;;;;8.97;8.07;;;10.80;99.90;;;;;;5066404;28;20212;-49
2022/11/09 08:44:00;;;;;;;9.33;7.27;;;10.70;99.90;;;;;;5065996;28;20203;-49
2022/11/09 08:46:27;;;;;;;6.80;5.93;;;10.60;99.90;;;;;;5058584;28;20231;-51
2022/11/09 08:48:54;;;;;;;7.87;6.23;;;10.60;99.90;;;;;;5055390;28;20222;-49
2022/11/09 08:51:21;;;;;;;10.57;7.33;;;10.60;99.90;;;;;;5061368;28;20210;-50
2022/11/09 08:53:50;;;;;;;7.37;6.63;;;10.60;99.90;;;;;;5066790;28;20285;-49
2022/11/09 08:56:17;;;;;;;7.30;6.60;;;10.60;99.90;;;;;;5060061;28;20296;-49
2022/11/09 08:58:45;;;;;;;6.87;6.10;;;10.70;99.90;;;;;;5054890;28;20278;-51
2022/11/09 09:01:13;;;;;;;8.70;6.73;;;10.70;99.90;;;;;;5056607;28;20275;-50
2022/11/09 09:03:40;;;;;;;8.37;5.33;;;10.80;99.90;;;;;;5064583;28;20203;-50
2022/11/09 09:06:07;;;;;;;6.87;5.70;;;10.90;99.90;;;;;;5074001;28;20231;-50
2022/11/09 09:08:35;;;;;;;5.93;5.43;;;11.10;99.90;;;;;;5066769;28;20248;-49
2022/11/09 09:11:04;;;;;;;6.20;5.60;;;11.20;99.90;;;;;;5056644;28;20197;-49
2022/11/09 09:13:31;;;;;;;6.67;5.17;;;11.40;99.90;;;;;;5073881;28;20203;-50
2022/11/09 09:15:59;;;;;;;7.63;4.93;;;11.50;99.90;;;;;;5073859;28;20224;-51
2022/11/09 09:18:26;;;;;;;7.50;5.90;;;11.70;99.90;;;;;;5068150;28;20198;-49
2022/11/09 09:20:53;;;;;;;7.77;5.83;;;11.80;99.90;;;;;;5072502;28;20203;-50
2022/11/09 09:23:19;;;;;;;6.00;4.23;;;12.00;99.90;;;;;;5073843;28;20207;-49
2022/11/09 09:25:47;;;;;;;6.53;5.93;;;12.20;99.90;;;;;;5073806;28;20221;-50
2022/11/09 09:28:15;;;;;;;6.03;5.50;;;12.40;99.90;;;;;;5069664;28;20209;-50
2022/11/09 09:30:42;;;;;;;6.60;5.67;;;12.50;99.90;;;;;;5063033;28;20663;-49
2022/11/09 09:33:09;;;;;;;6.47;5.93;;;12.50;99.90;;;;;;5063462;28;20210;-50
2022/11/09 09:35:36;;;;;;;6.07;5.57;;;12.50;99.90;;;;;;5067208;28;20675;-50
2022/11/09 09:38:03;;;;;;;6.33;5.80;;;12.50;99.90;;;;;;5060180;28;20203;-50
2022/11/09 09:40:34;;;;;;;7.77;6.10;;;12.50;99.90;;;;;;5069198;28;20200;-49
2022/11/09 09:43:02;;;;;;;7.20;6.37;;;12.70;99.90;;;;;;5033361;28;20610;-49
2022/11/09 09:45:33;;;;;;;6.13;5.50;;;12.80;99.90;;;;;;5032762;28;20214;-50
2022/11/09 09:48:05;;;;;;;6.27;5.20;;;12.80;99.90;;;;;;5054643;28;20200;-48
2022/11/09 09:50:37;;;;;;;7.03;5.93;;;12.80;99.90;;;;;;5069278;28;20732;-48
2022/11/09 09:53:14;;;;;;;6.50;5.60;;;12.90;99.90;;;;;;5033258;28;20301;-49
2022/11/09 09:55:55;;;;;;;9.50;6.67;;;12.90;99.90;;;;;;5033354;28;20268;-48
2022/11/09 09:58:26;;;;;;;7.27;6.57;;;12.90;99.90;;;;;;5036205;28;20208;-48
2022/11/09 10:00:59;;;;;;;10.43;6.53;;;13.00;99.90;;;;;;5062423;28;20271;-48
2022/11/09 10:03:26;;;;;;;8.90;6.30;;;13.10;99.90;;;;;;5073094;28;20254;-49
2022/11/09 10:06:01;;;;;;;7.73;6.57;;;13.30;99.90;;;;;;5073129;28;20282;-49
2022/11/09 10:08:38;;;;;;;7.97;6.10;;;13.40;99.90;;;;;;5066845;28;20206;-48
2022/11/09 10:11:16;;;;;;;6.27;5.70;;;13.60;99.90;;;;;;5065608;28;20268;-48
2022/11/09 10:13:57;;;;;;;6.67;5.43;;;13.70;99.90;;;;;;5072634;28;20628;-49
2022/11/09 10:16:32;;;;;;;7.50;6.47;;;13.60;99.90;;;;;;5073084;28;20291;-49
2022/11/09 10:19:31;;;;;;;6.23;5.50;;;13.60;99.90;;;;;;5061459;28;20621;-49
2022/11/09 10:22:08;;;;;;;7.67;5.33;;;13.70;99.90;;;;;;5061036;28;20201;-48
2022/11/09 10:24:46;;;;;;;6.30;5.83;;;13.70;99.90;;;;;;5072810;28;20262;-48
2022/11/09 10:27:26;;;;;;;7.60;5.73;;;13.80;99.90;;;;;;5067026;28;20221;-48
2022/11/09 10:29:55;;;;;;;5.37;4.90;;;14.00;99.90;;;;;;5069402;28;20254;-48
2022/11/09 10:32:24;;;;;;;6.27;5.17;;;14.20;99.90;;;;;;5072432;28;20296;-51
2022/11/09 10:34:56;;;;;;;6.53;4.37;;;14.10;99.90;;;;;;5032609;28;20627;-49
2022/11/09 10:37:28;;;;;;;10.17;5.00;;;14.10;99.90;;;;;;5046523;28;20266;-48
2022/11/09 10:40:02;;;;;;;5.10;4.60;;;13.90;99.90;;;;;;5073402;28;20598;-49
2022/11/09 10:42:30;;;;;;;8.03;4.83;;;13.80;99.90;;;;;;5058382;28;20233;-48
2022/11/09 10:45:00;;;;;;;4.80;4.40;;;13.70;99.90;;;;;;5061210;28;20205;-47
2022/11/09 10:47:28;;;;;;;5.17;4.67;;;13.70;99.90;;;;;;5070248;28;20787;-48
2022/11/09 10:50:09;;;;;;;4.73;4.30;;;13.60;99.90;;;;;;5077485;28;20197;-47
2022/11/09 10:52:39;;;;;;;4.33;4.03;;;13.40;99.90;;;;;;5072169;28;20682;-48
2022/11/09 10:55:20;;;;;;;4.97;4.20;;;13.30;99.90;;;;;;5071904;28;20200;-48
2022/11/09 10:57:58;;;;;;;6.00;4.33;;;13.20;99.90;;;;;;5068466;28;20220;-47
2022/11/09 11:00:26;;;;;;;5.00;4.40;;;13.00;99.90;;;;;;5053368;28;20197;-48
2022/11/09 11:02:55;;;;;;;7.13;4.80;;;12.90;99.90;;;;;;5070107;28;20212;-49
2022/11/09 11:05:31;;;;;;;4.33;3.93;;;12.80;99.90;;;;;;5066988;28;20203;-49
2022/11/09 11:08:10;;;;;;;4.27;3.87;;;12.90;99.90;;;;;;5065420;28;20785;-49
2022/11/09 11:10:37;;;;;;;5.80;4.37;;;12.80;99.90;;;;;;5058045;28;20259;-48
2022/11/09 11:13:21;;;;;;;4.43;4.07;;;12.90;99.90;;;;;;5071589;28;20204;-48
2022/11/09 11:15:48;;;;;;;4.07;3.70;;;12.80;99.90;;;;;;5072050;28;20223;-48
2022/11/09 11:18:22;;;;;;;6.07;3.30;;;12.80;99.90;;;;;;5069967;28;20259;-50
2022/11/09 11:21:03;;;;;;;3.43;3.23;;;12.70;99.90;;;;;;5064799;28;20288;-48
2022/11/09 11:23:32;;;;;;;3.97;3.67;;;12.70;99.90;;;;;;5071487;28;20674;-49
2022/11/09 11:26:26;;;;;;;4.13;3.60;;;12.70;99.90;;;;;;5071634;28;20229;-49
2022/11/09 11:28:59;;;;;;;3.57;3.33;;;12.70;99.90;;;;;;5046148;28;20204;-48
2022/11/09 11:31:26;;;;;;;3.73;3.50;;;12.70;99.90;;;;;;5056688;28;20670;-49
2022/11/09 11:33:55;;;;;;;3.80;3.50;;;12.70;99.90;;;;;;5050514;28;22129;-49
2022/11/09 11:36:30;;;;;;;6.73;3.90;;;12.70;99.90;;;;;;5057869;28;20218;-49
2022/11/09 11:39:04;;;;;;;4.43;4.23;;;12.80;99.90;;;;;;5051819;28;20205;-49
2022/11/09 11:41:46;;;;;;;3.87;3.63;;;12.80;99.90;;;;;;5051661;28;20208;-49
2022/11/09 11:44:26;;;;;;;5.75;5.15;;;12.90;99.90;;;;;;5042361;28;20513;-50
2022/11/09 11:47:01;;;;;;;4.17;3.87;;;13.00;99.90;;;;;;5069800;28;20689;-49
2022/11/09 11:50:14;;;;;;;5.50;5.07;;;13.10;99.90;;;;;;5055113;28;20675;-50
2022/11/09 11:52:55;;;;;;;6.90;4.33;;;13.10;99.90;;;;;;5031359;28;20209;-48
2022/11/09 11:55:45;;;;;;;5.40;4.90;;;13.30;99.90;;;;;;5050043;28;20199;-48
2022/11/09 11:58:27;;;;;;;12.07;5.93;;;13.40;99.90;;;;;;5057810;28;20200;-48
2022/11/09 12:00:59;;;;;;;13.30;5.10;;;13.60;99.90;;;;;;5071243;28;20671;-50
2022/11/09 12:03:40;;;;;;;6.10;5.50;;;13.70;99.90;;;;;;5070851;28;20209;-48
2022/11/09 12:06:41;;;;;;;7.20;5.17;;;13.80;99.90;;;;;;5049610;28;20308;-50
2022/11/09 12:09:28;;;;;;;6.30;4.97;;;14.00;99.90;;;;;;5065741;28;20227;-49
2022/11/09 12:12:07;;;;;;;7.93;5.10;;;14.10;99.90;;;;;;5065760;28;20194;-50
2022/11/09 12:14:46;;;;;;;5.13;3.77;;;14.20;99.90;;;;;;5052948;28;20205;-50
2022/11/09 12:17:20;;;;;;;5.50;3.73;;;14.30;99.90;;;;;;5060765;28;20606;-50
2022/11/09 12:20:06;;;;;;;3.87;3.57;;;14.30;99.90;;;;;;5075079;28;20219;-51
2022/11/09 12:22:48;;;;;;;5.77;3.80;;;14.40;99.90;;;;;;5074889;28;20205;-51
2022/11/09 12:25:19;;;;;;;4.57;4.03;;;14.40;99.90;;;;;;5050839;28;20767;-49
2022/11/09 12:28:24;;;;;;;5.07;4.57;;;14.30;99.90;;;;;;5074685;28;20219;-49
2022/11/09 12:31:08;;;;;;;5.10;4.80;;;14.30;99.90;;;;;;5074720;28;20200;-49
2022/11/09 12:33:44;;;;;;;5.93;5.40;;;14.30;99.90;;;;;;5074773;28;20204;-50
2022/11/09 12:36:16;;;;;;;6.27;5.13;;;14.20;99.90;;;;;;5067243;28;20246;-49
2022/11/09 12:38:54;;;;;;;5.60;5.07;;;14.00;99.90;;;;;;5074815;28;20204;-50
2022/11/09 12:41:24;;;;;;;5.43;4.60;;;13.90;99.90;;;;;;5060534;28;20296;-51
2022/11/09 12:43:57;;;;;;;5.30;4.80;;;13.90;99.90;;;;;;5054335;28;20204;-50
2022/11/09 12:46:29;;;;;;;5.40;5.00;;;13.90;99.90;;;;;;5064149;28;20233;-50
2022/11/09 12:49:01;;;;;;;5.47;5.00;;;13.80;99.90;;;;;;5070934;28;20249;-51
2022/11/09 12:51:29;;;;;;;6.33;5.37;;;13.70;99.90;;;;;;5069802;28;20678;-49
2022/11/09 12:53:58;;;;;;;4.93;4.37;;;13.60;99.90;;;;;;5073892;28;20537;-50
2022/11/09 12:56:29;;;;;;;5.73;5.17;;;13.50;99.90;;;;;;5074268;28;20221;-50
2022/11/09 12:59:21;;;;;;;9.30;5.50;;;13.50;99.90;;;;;;5055219;28;20209;-50
2022/11/09 13:01:53;;;;;;;6.23;4.97;;;13.50;99.90;;;;;;5056595;28;20655;-50
2022/11/09 13:04:22;;;;;;;6.53;4.97;;;13.50;99.90;;;;;;5053927;28;20247;-50